Time;durP1;ratioP1;P1;durP2;ratioP2;P2;SDS_P1;SDS_P2;PMS_P1;PMS_P2;Temp;Humidity;BMP_temperature;BMP_pressure;BME280_temperature;BME280_humidity;BME280_pressure;Samples;Min_cycle;Max_cycle;Signal;HPM_P1;HPM_P2
2021/10/12 00:00:04;;;;;;;5.30;2.22;;;10.70;99.70;;;;;;4999052;28;20375;-83
2021/10/12 00:02:30;;;;;;;5.43;2.60;;;10.60;99.60;;;;;;4999007;28;20561;-83
2021/10/12 00:04:55;;;;;;;6.05;2.53;;;10.60;99.60;;;;;;4997868;28;20504;-83
2021/10/12 00:07:21;;;;;;;15.23;5.50;;;10.60;99.70;;;;;;4996381;28;20099;-83
2021/10/12 00:09:47;;;;;;;7.78;2.50;;;10.60;99.60;;;;;;4969009;28;20249;-83
2021/10/12 00:12:12;;;;;;;7.07;2.90;;;10.70;99.70;;;;;;4985298;28;20030;-83
2021/10/12 00:14:38;;;;;;;6.32;2.53;;;10.70;99.70;;;;;;5002171;28;20042;-84
2021/10/12 00:17:03;;;;;;;11.57;2.97;;;10.70;99.60;;;;;;4978006;28;20039;-83
2021/10/12 00:19:29;;;;;;;7.85;2.42;;;10.60;99.70;;;;;;4988688;28;20033;-84
2021/10/12 00:21:54;;;;;;;6.43;3.22;;;10.60;99.70;;;;;;4986403;28;20065;-83
2021/10/12 00:24:20;;;;;;;6.38;2.38;;;10.60;99.60;;;;;;4988341;28;20034;-84
2021/10/12 00:26:45;;;;;;;6.90;2.75;;;10.60;99.80;;;;;;4979852;28;20058;-84
2021/10/12 00:29:11;;;;;;;13.30;3.38;;;10.50;99.80;;;;;;4969377;28;20113;-84
2021/10/12 00:31:36;;;;;;;5.88;2.78;;;10.60;99.80;;;;;;4952277;28;20023;-84
2021/10/12 00:34:02;;;;;;;6.25;2.67;;;10.60;99.80;;;;;;4957181;28;20030;-84
2021/10/12 00:36:27;;;;;;;5.53;2.50;;;10.60;99.90;;;;;;5001448;28;20042;-84
2021/10/12 00:38:53;;;;;;;13.27;3.42;;;10.50;99.90;;;;;;4963755;28;20034;-84
2021/10/12 00:41:20;;;;;;;7.18;2.67;;;10.50;99.90;;;;;;4968707;28;20513;-84
2021/10/12 00:43:45;;;;;;;5.38;2.42;;;10.40;99.90;;;;;;4989220;28;20037;-85
2021/10/12 00:46:11;;;;;;;7.95;2.78;;;10.50;99.90;;;;;;4987918;28;20031;-84
2021/10/12 00:48:37;;;;;;;6.05;2.22;;;10.50;99.90;;;;;;5004121;28;20041;-84
2021/10/12 00:51:02;;;;;;;10.55;4.35;;;10.40;99.90;;;;;;5012294;28;20152;-84
2021/10/12 00:53:29;;;;;;;9.15;2.58;;;10.40;99.90;;;;;;4990485;28;20141;-85
2021/10/12 00:55:55;;;;;;;9.02;2.67;;;10.40;99.90;;;;;;4968065;28;20055;-84
2021/10/12 00:58:21;;;;;;;8.25;3.08;;;10.40;99.90;;;;;;4998046;28;20501;-84
2021/10/12 01:00:46;;;;;;;11.70;3.75;;;10.40;99.90;;;;;;4998901;28;20041;-85
2021/10/12 01:03:12;;;;;;;10.77;2.95;;;10.40;99.90;;;;;;4998667;28;20022;-85
2021/10/12 01:05:38;;;;;;;8.90;3.47;;;10.30;99.90;;;;;;5004611;28;20046;-84
2021/10/12 01:08:03;;;;;;;5.82;2.35;;;10.20;99.90;;;;;;4986206;28;20189;-84
2021/10/12 01:10:29;;;;;;;7.90;2.80;;;10.30;99.90;;;;;;4981046;28;20053;-84
2021/10/12 01:12:55;;;;;;;7.43;3.33;;;10.40;99.90;;;;;;4992656;28;20034;-84
2021/10/12 01:15:20;;;;;;;9.18;2.65;;;10.40;99.90;;;;;;4998687;28;20042;-84
2021/10/12 01:17:46;;;;;;;9.18;4.45;;;10.30;99.90;;;;;;5001891;28;20037;-85
2021/10/12 01:20:12;;;;;;;12.38;4.43;;;10.30;99.90;;;;;;4970445;28;20121;-84
2021/10/12 01:22:44;;;;;;;9.27;4.25;;;10.30;99.90;;;;;;5005702;28;20046;-85
2021/10/12 01:25:10;;;;;;;11.77;4.53;;;10.30;99.90;;;;;;4988035;28;20026;-85
2021/10/12 01:27:36;;;;;;;7.47;3.10;;;10.30;99.90;;;;;;4989527;28;20478;-85
2021/10/12 01:30:03;;;;;;;11.15;3.88;;;10.30;99.90;;;;;;5005256;28;20040;-85
2021/10/12 01:32:28;;;;;;;4.95;2.35;;;10.30;99.90;;;;;;4989545;28;20030;-85
2021/10/12 01:34:58;;;;;;;5.93;2.80;;;10.30;99.90;;;;;;5008991;28;20033;-85
2021/10/12 01:37:24;;;;;;;12.25;5.05;;;10.30;99.90;;;;;;5006670;28;20025;-85
2021/10/12 01:39:49;;;;;;;11.85;4.25;;;10.30;99.90;;;;;;4987533;28;20426;-85
2021/10/12 01:42:15;;;;;;;11.13;5.00;;;10.30;99.90;;;;;;5005651;28;20033;-85
2021/10/12 01:44:40;;;;;;;11.95;5.63;;;10.30;99.90;;;;;;4985275;28;20077;-85
2021/10/12 01:47:06;;;;;;;6.28;4.07;;;10.30;99.90;;;;;;4990438;28;20374;-85
2021/10/12 01:49:31;;;;;;;13.43;7.20;;;10.30;99.90;;;;;;5006566;28;20041;-85
2021/10/12 01:51:57;;;;;;;10.05;5.47;;;10.30;99.90;;;;;;4984755;28;20034;-85
2021/10/12 01:54:23;;;;;;;9.40;4.60;;;10.30;99.90;;;;;;4987323;28;20030;-85
2021/10/12 01:56:49;;;;;;;17.73;6.70;;;10.30;99.90;;;;;;5000679;28;20052;-85
2021/10/12 01:59:15;;;;;;;14.85;7.15;;;10.30;99.90;;;;;;4990165;28;20034;-85
2021/10/12 02:01:40;;;;;;;11.13;6.45;;;10.30;99.90;;;;;;4968994;28;20619;-85
2021/10/12 02:04:07;;;;;;;11.27;6.93;;;10.40;99.90;;;;;;4994680;28;20611;-85
2021/10/12 02:06:32;;;;;;;15.70;9.02;;;10.30;99.90;;;;;;4996363;28;20026;-85
2021/10/12 02:08:58;;;;;;;16.20;9.95;;;10.30;99.90;;;;;;4990409;28;20036;-85
2021/10/12 02:11:23;;;;;;;14.93;7.90;;;10.30;99.90;;;;;;4986386;28;20038;-85
2021/10/12 02:13:49;;;;;;;10.18;7.90;;;10.20;99.90;;;;;;4982610;28;20054;-85
2021/10/12 02:16:14;;;;;;;12.23;6.82;;;10.20;99.90;;;;;;4981659;28;20070;-85
2021/10/12 02:18:40;;;;;;;24.88;12.30;;;10.30;99.90;;;;;;4952794;28;20430;-85
2021/10/12 02:21:06;;;;;;;13.70;7.03;;;10.30;99.90;;;;;;4966188;28;20142;-84
2021/10/12 02:23:31;;;;;;;19.45;10.80;;;10.30;99.90;;;;;;4979188;28;20534;-84
2021/10/12 02:25:57;;;;;;;15.63;10.18;;;10.30;99.90;;;;;;4962215;28;20043;-85
2021/10/12 02:28:22;;;;;;;18.45;9.70;;;10.30;99.90;;;;;;5001837;28;20050;-85
2021/10/12 02:30:48;;;;;;;13.65;9.20;;;10.20;99.90;;;;;;4997527;28;20030;-85
2021/10/12 02:33:13;;;;;;;10.50;6.63;;;10.20;99.90;;;;;;4992916;28;20033;-85
2021/10/12 02:35:39;;;;;;;12.02;7.05;;;10.30;99.90;;;;;;4988434;28;20452;-84
2021/10/12 02:38:04;;;;;;;11.23;7.57;;;10.30;99.90;;;;;;5004630;28;20531;-84
2021/10/12 02:40:30;;;;;;;16.23;9.02;;;10.30;99.90;;;;;;4990532;28;20129;-84
2021/10/12 02:42:56;;;;;;;12.93;8.00;;;10.30;99.90;;;;;;5003580;28;20065;-85
2021/10/12 02:45:21;;;;;;;21.23;13.48;;;10.30;99.90;;;;;;4981908;28;20030;-85
2021/10/12 02:47:47;;;;;;;16.67;10.73;;;10.20;99.90;;;;;;4982455;28;20045;-85
2021/10/12 02:50:12;;;;;;;12.30;8.68;;;10.20;99.90;;;;;;4954296;28;20031;-85
2021/10/12 02:52:38;;;;;;;14.40;10.38;;;10.20;99.90;;;;;;4963672;28;20034;-85
2021/10/12 02:55:04;;;;;;;18.92;9.38;;;10.20;99.90;;;;;;5002743;28;20041;-85
2021/10/12 02:57:32;;;;;;;24.45;13.20;;;10.20;99.90;;;;;;4949343;28;20034;-85
2021/10/12 02:59:58;;;;;;;24.30;13.23;;;10.20;99.90;;;;;;4986122;28;20395;-84
2021/10/12 03:02:24;;;;;;;18.55;10.90;;;10.20;99.90;;;;;;4987936;28;20525;-85
2021/10/12 03:04:49;;;;;;;13.57;9.65;;;10.20;99.90;;;;;;4984245;28;20049;-85
2021/10/12 03:07:15;;;;;;;17.48;10.50;;;10.20;99.90;;;;;;4988515;28;20023;-85
2021/10/12 03:09:40;;;;;;;16.67;9.00;;;10.20;99.90;;;;;;5006724;28;20030;-85
2021/10/12 03:12:06;;;;;;;14.02;9.05;;;10.20;99.90;;;;;;4990208;28;20033;-85
2021/10/12 03:14:35;;;;;;;14.77;9.35;;;10.20;99.90;;;;;;4989602;28;20041;-85
2021/10/12 03:17:01;;;;;;;19.85;10.27;;;10.30;99.90;;;;;;5005087;28;20118;-85
2021/10/12 03:19:26;;;;;;;11.45;8.57;;;10.20;99.90;;;;;;5018224;28;20473;-85
2021/10/12 03:21:56;;;;;;;17.85;11.55;;;10.20;99.90;;;;;;4989851;28;20532;-85
2021/10/12 03:24:21;;;;;;;18.75;10.13;;;10.10;99.90;;;;;;5004698;28;20030;-85
2021/10/12 03:26:47;;;;;;;12.48;8.35;;;10.20;99.90;;;;;;5005448;28;20080;-86
2021/10/12 03:29:12;;;;;;;15.15;8.75;;;10.10;99.90;;;;;;4988346;28;20030;-85
2021/10/12 03:31:38;;;;;;;11.80;8.10;;;10.10;99.90;;;;;;4986786;28;20034;-86
2021/10/12 03:34:03;;;;;;;10.23;7.05;;;10.10;99.90;;;;;;4987896;28;20038;-85
2021/10/12 03:36:29;;;;;;;11.18;7.88;;;10.10;99.90;;;;;;4991463;28;20034;-85
2021/10/12 03:38:55;;;;;;;12.93;7.88;;;10.10;99.90;;;;;;5002488;28;20069;-85
2021/10/12 03:41:20;;;;;;;10.15;7.13;;;10.10;99.90;;;;;;5005739;28;20096;-85
2021/10/12 03:43:46;;;;;;;12.52;6.43;;;10.10;99.90;;;;;;5002804;28;20041;-85
2021/10/12 03:46:12;;;;;;;9.98;6.60;;;10.10;99.90;;;;;;4982184;28;20122;-85
2021/10/12 03:48:38;;;;;;;13.75;7.57;;;10.10;99.90;;;;;;5001628;28;20081;-85
2021/10/12 03:51:03;;;;;;;11.15;6.60;;;10.00;99.90;;;;;;4990310;28;20049;-85
2021/10/12 03:53:29;;;;;;;9.90;6.03;;;10.10;99.90;;;;;;4998671;28;20044;-85
2021/10/12 03:55:55;;;;;;;12.20;5.63;;;10.00;99.90;;;;;;5000187;28;20042;-85
2021/10/12 03:58:20;;;;;;;12.45;6.25;;;10.10;99.90;;;;;;5001648;28;20045;-85
2021/10/12 04:00:46;;;;;;;9.98;5.70;;;10.10;99.90;;;;;;5003851;28;20030;-85
2021/10/12 04:03:11;;;;;;;9.38;5.63;;;10.10;99.90;;;;;;5001763;28;20056;-85
2021/10/12 04:05:37;;;;;;;9.70;4.82;;;10.00;99.90;;;;;;5000257;28;20128;-85
2021/10/12 04:08:02;;;;;;;9.82;5.20;;;10.00;99.90;;;;;;5011186;28;20490;-85
2021/10/12 04:10:28;;;;;;;7.05;5.10;;;10.10;99.90;;;;;;4969157;28;20058;-86
2021/10/12 04:12:53;;;;;;;7.10;4.28;;;10.10;99.90;;;;;;5004138;28;20061;-85
2021/10/12 04:15:19;;;;;;;9.85;5.05;;;10.00;99.90;;;;;;5003331;28;20073;-85
2021/10/12 04:17:44;;;;;;;8.77;5.15;;;10.00;99.90;;;;;;5007067;28;20374;-85
2021/10/12 04:20:10;;;;;;;14.57;8.52;;;9.90;99.90;;;;;;4984273;28;20431;-85
2021/10/12 04:22:36;;;;;;;18.80;9.48;;;10.00;99.90;;;;;;4971994;28;20066;-86
2021/10/12 04:25:02;;;;;;;21.67;11.63;;;10.00;99.90;;;;;;4986669;28;20377;-86
2021/10/12 04:27:28;;;;;;;14.35;6.53;;;10.00;99.90;;;;;;5008757;28;20474;-86
2021/10/12 04:29:54;;;;;;;13.38;7.30;;;10.00;99.90;;;;;;5002864;28;20046;-86
2021/10/12 04:32:19;;;;;;;14.00;8.45;;;10.00;99.90;;;;;;4991203;28;20105;-85
2021/10/12 04:34:45;;;;;;;20.42;12.32;;;10.00;99.90;;;;;;5004817;28;20026;-85
2021/10/12 04:37:10;;;;;;;22.00;11.60;;;9.90;99.90;;;;;;4978339;28;20116;-85
2021/10/12 04:39:36;;;;;;;30.15;15.05;;;9.90;99.90;;;;;;4972279;28;20598;-85
2021/10/12 04:42:02;;;;;;;18.80;12.25;;;9.90;99.90;;;;;;5007474;28;20486;-86
2021/10/12 04:44:28;;;;;;;16.42;9.77;;;9.90;99.90;;;;;;4975846;28;20060;-85
2021/10/12 04:46:53;;;;;;;19.50;11.07;;;9.90;99.90;;;;;;4969771;28;20133;-85
2021/10/12 04:49:19;;;;;;;19.42;10.52;;;9.90;99.90;;;;;;4994278;28;20424;-85
2021/10/12 04:51:44;;;;;;;24.73;12.45;;;9.90;99.90;;;;;;4993405;28;20147;-85
2021/10/12 04:54:10;;;;;;;25.92;13.80;;;10.00;99.90;;;;;;4981831;28;20057;-85
2021/10/12 04:56:35;;;;;;;20.35;8.82;;;10.00;99.90;;;;;;5006356;28;20049;-85
2021/10/12 04:59:01;;;;;;;23.35;12.38;;;10.00;99.90;;;;;;4990520;28;20164;-84
2021/10/12 05:01:26;;;;;;;29.35;16.63;;;10.00;99.90;;;;;;5020799;28;20038;-85
2021/10/12 05:03:52;;;;;;;25.45;14.10;;;10.00;99.90;;;;;;4981836;28;20046;-85
2021/10/12 05:06:18;;;;;;;23.88;15.52;;;10.00;99.90;;;;;;4964060;28;20031;-85
2021/10/12 05:08:43;;;;;;;19.20;10.63;;;10.00;99.90;;;;;;4951294;28;20077;-85
2021/10/12 05:11:09;;;;;;;14.30;9.40;;;10.00;99.90;;;;;;4970315;28;20065;-85
2021/10/12 05:13:34;;;;;;;22.08;11.75;;;10.00;99.90;;;;;;4964466;28;20380;-85
2021/10/12 05:16:03;;;;;;;37.03;20.83;;;10.00;99.90;;;;;;4954659;28;20499;-85
2021/10/12 05:18:32;;;;;;;26.80;16.58;;;10.00;99.90;;;;;;4965687;28;20487;-85
2021/10/12 05:20:58;;;;;;;32.83;21.08;;;10.00;99.90;;;;;;4963896;28;20038;-85
2021/10/12 05:23:23;;;;;;;23.05;13.23;;;9.90;99.90;;;;;;4975621;28;20445;-86
2021/10/12 05:25:49;;;;;;;27.48;17.35;;;9.90;99.90;;;;;;4971250;28;20399;-85
2021/10/12 05:28:15;;;;;;;12.43;7.00;;;9.90;99.90;;;;;;4966668;28;20041;-86
2021/10/12 05:30:41;;;;;;;33.67;16.75;;;9.90;99.90;;;;;;4980356;28;20034;-85
2021/10/12 05:33:10;;;;;;;22.17;14.88;;;9.90;99.90;;;;;;4994100;28;20037;-86
2021/10/12 05:35:35;;;;;;;28.35;16.13;;;9.90;99.90;;;;;;4971302;28;20045;-85
2021/10/12 05:38:01;;;;;;;30.60;17.58;;;10.00;99.90;;;;;;4965157;28;20117;-86
2021/10/12 05:40:26;;;;;;;24.95;14.00;;;9.90;99.90;;;;;;4965048;28;20073;-85
2021/10/12 05:42:52;;;;;;;12.07;7.20;;;10.00;99.90;;;;;;4967696;28;20093;-85
2021/10/12 05:45:17;;;;;;;28.70;16.60;;;10.00;99.90;;;;;;4979412;28;20076;-85
2021/10/12 05:47:43;;;;;;;22.50;14.88;;;10.00;99.90;;;;;;4952926;28;20030;-85
2021/10/12 05:50:09;;;;;;;23.15;14.05;;;9.90;99.90;;;;;;4986272;28;20073;-85
2021/10/12 05:52:37;;;;;;;20.55;13.88;;;9.90;99.90;;;;;;4965418;28;20041;-85
2021/10/12 05:55:10;;;;;;;27.08;15.98;;;10.00;99.90;;;;;;4984065;28;20407;-85
2021/10/12 06:00:08;;;;;;;19.58;13.55;;;10.00;99.90;;;;;;4980388;28;20519;-85
2021/10/12 06:02:33;;;;;;;16.92;8.68;;;10.00;99.90;;;;;;4969128;28;20035;-85
2021/10/12 06:04:59;;;;;;;20.85;11.30;;;10.00;99.90;;;;;;4966769;28;20121;-84
2021/10/12 06:07:24;;;;;;;17.90;10.80;;;10.00;99.90;;;;;;4956647;28;20030;-85
2021/10/12 06:09:53;;;;;;;20.15;9.73;;;10.00;99.90;;;;;;4966172;28;20038;-86
2021/10/12 06:12:18;;;;;;;23.45;12.70;;;9.90;99.90;;;;;;4984894;28;20039;-86
2021/10/12 06:14:44;;;;;;;18.92;11.68;;;10.00;99.90;;;;;;4968386;28;20030;-85
2021/10/12 06:17:13;;;;;;;19.65;10.05;;;10.00;99.90;;;;;;4986803;28;20037;-86
2021/10/12 06:19:38;;;;;;;16.40;10.25;;;10.00;99.90;;;;;;4953879;28;20049;-86
2021/10/12 06:22:04;;;;;;;19.75;11.68;;;9.90;99.90;;;;;;4984693;28;20034;-85
2021/10/12 06:24:30;;;;;;;19.35;12.63;;;10.00;99.90;;;;;;4975686;28;20030;-86
2021/10/12 06:26:55;;;;;;;13.18;6.57;;;9.90;99.90;;;;;;5002160;28;20030;-86
2021/10/12 06:29:21;;;;;;;22.40;12.73;;;10.00;99.90;;;;;;5004922;28;20034;-85
2021/10/12 06:31:46;;;;;;;19.40;10.75;;;10.00;99.90;;;;;;5000435;28;20089;-85
2021/10/12 06:34:12;;;;;;;23.13;12.35;;;10.00;99.90;;;;;;4975184;28;20038;-85
2021/10/12 06:36:41;;;;;;;23.60;10.88;;;10.10;99.90;;;;;;4984993;28;20128;-85
2021/10/12 06:39:07;;;;;;;15.73;7.97;;;10.00;99.90;;;;;;5003202;28;20034;-86
2021/10/12 06:41:32;;;;;;;12.48;7.60;;;10.00;99.90;;;;;;4989523;28;20128;-86
2021/10/12 06:43:58;;;;;;;18.00;9.15;;;10.00;99.90;;;;;;5004779;28;20041;-85
2021/10/12 06:46:24;;;;;;;21.02;10.18;;;10.00;99.90;;;;;;4974190;28;20034;-84
2021/10/12 06:48:50;;;;;;;13.18;8.73;;;10.00;99.90;;;;;;5003277;28;20449;-84
2021/10/12 06:51:15;;;;;;;17.23;12.55;;;10.10;99.90;;;;;;5002031;28;20332;-85
2021/10/12 06:53:44;;;;;;;25.05;12.55;;;10.10;99.90;;;;;;4977780;28;20036;-85
2021/10/12 06:56:10;;;;;;;20.83;12.13;;;10.10;99.90;;;;;;4956957;28;20050;-85
2021/10/12 06:58:35;;;;;;;18.83;11.65;;;10.10;99.90;;;;;;4967955;28;20837;-84
2021/10/12 07:01:01;;;;;;;17.05;10.63;;;10.10;99.90;;;;;;5003184;28;20152;-85
2021/10/12 07:03:32;;;;;;;22.55;14.18;;;10.10;99.90;;;;;;4969897;28;20034;-85
2021/10/12 07:05:58;;;;;;;20.40;8.05;;;10.20;99.90;;;;;;4968326;28;20483;-85
2021/10/12 07:08:23;;;;;;;16.52;11.30;;;10.20;99.90;;;;;;5002478;28;20088;-85
2021/10/12 07:10:49;;;;;;;18.48;9.18;;;10.20;99.90;;;;;;4985208;28;20053;-85
2021/10/12 07:13:14;;;;;;;21.10;12.23;;;10.20;99.90;;;;;;4990691;28;20026;-86
2021/10/12 07:15:42;;;;;;;12.07;8.02;;;10.20;99.90;;;;;;4982188;28;20402;-86
2021/10/12 07:18:11;;;;;;;12.40;8.52;;;10.20;99.90;;;;;;4989456;28;20034;-86
2021/10/12 07:20:39;;;;;;;16.95;7.60;;;10.20;99.90;;;;;;5005260;28;20026;-86
2021/10/12 07:23:04;;;;;;;11.85;7.25;;;10.30;99.90;;;;;;4981279;28;20041;-86
2021/10/12 07:25:30;;;;;;;15.38;8.55;;;10.30;99.90;;;;;;4971426;28;20037;-86
2021/10/12 07:27:55;;;;;;;7.75;4.53;;;10.30;99.90;;;;;;4986423;28;20519;-86
2021/10/12 07:30:21;;;;;;;13.75;8.50;;;10.30;99.90;;;;;;5000616;28;20033;-86
2021/10/12 07:32:47;;;;;;;12.70;8.48;;;10.30;99.90;;;;;;4953875;28;20034;-87
2021/10/12 07:35:13;;;;;;;21.33;13.63;;;10.40;99.90;;;;;;4968613;28;20441;-86
2021/10/12 07:37:41;;;;;;;11.93;7.93;;;10.40;99.90;;;;;;4983317;28;20125;-88
2021/10/12 07:40:07;;;;;;;19.27;12.40;;;10.30;99.90;;;;;;4971850;28;20035;-86
2021/10/12 07:42:34;;;;;;;12.13;6.85;;;10.30;99.90;;;;;;4986953;28;20390;-87
2021/10/12 07:45:00;;;;;;;16.40;11.82;;;10.40;99.90;;;;;;5004867;28;20034;-87
2021/10/12 07:47:25;;;;;;;17.48;10.68;;;10.40;99.90;;;;;;4988390;28;20044;-87
2021/10/12 07:49:51;;;;;;;25.23;14.75;;;10.40;99.90;;;;;;5005389;28;20046;-87
2021/10/12 07:52:18;;;;;;;21.42;13.68;;;10.40;99.90;;;;;;4958050;28;20582;-87
2021/10/12 07:54:48;;;;;;;10.10;4.82;;;10.40;99.90;;;;;;4952184;28;20018;-86
2021/10/12 07:57:15;;;;;;;19.85;12.07;;;10.40;99.90;;;;;;4984117;28;20046;-87
2021/10/12 07:59:41;;;;;;;21.65;11.40;;;10.40;99.90;;;;;;5005192;28;20053;-87
2021/10/12 08:02:11;;;;;;;21.83;12.85;;;10.40;99.90;;;;;;4965749;28;20027;-87
2021/10/12 08:04:37;;;;;;;8.30;5.85;;;10.50;99.90;;;;;;4969661;28;20045;-86
2021/10/12 08:07:03;;;;;;;18.45;12.73;;;10.60;99.90;;;;;;4979567;28;20034;-87
2021/10/12 08:09:28;;;;;;;22.15;14.60;;;10.60;99.90;;;;;;4954108;28;20367;-86
2021/10/12 08:11:54;;;;;;;17.63;12.20;;;10.70;99.90;;;;;;5018246;28;20555;-87
2021/10/12 08:14:21;;;;;;;25.92;14.30;;;10.70;99.90;;;;;;5001748;28;20490;-86
2021/10/12 08:16:47;;;;;;;21.23;14.30;;;10.70;99.90;;;;;;4997542;28;20065;-87
2021/10/12 08:19:12;;;;;;;18.55;12.27;;;10.80;99.90;;;;;;4973466;28;20053;-87
2021/10/12 08:21:38;;;;;;;26.92;14.13;;;10.80;99.90;;;;;;4981702;28;20049;-88
2021/10/12 08:24:05;;;;;;;17.35;11.48;;;10.90;99.90;;;;;;5004481;28;20026;-87
2021/10/12 08:26:31;;;;;;;24.27;15.02;;;10.90;99.90;;;;;;4981651;28;20046;-87
2021/10/12 08:28:56;;;;;;;26.88;15.98;;;10.80;99.90;;;;;;4980621;28;20100;-88
2021/10/12 08:31:22;;;;;;;19.90;13.13;;;10.80;99.90;;;;;;5003531;28;20031;-87
2021/10/12 08:33:48;;;;;;;26.98;17.40;;;10.90;99.90;;;;;;5000824;28;20110;-87
2021/10/12 08:36:14;;;;;;;24.05;17.52;;;10.80;99.90;;;;;;4980912;28;20050;-87
2021/10/12 08:38:40;;;;;;;17.27;11.98;;;10.80;99.90;;;;;;4995373;28;20389;-87
2021/10/12 08:41:06;;;;;;;20.45;10.70;;;10.80;99.90;;;;;;4982893;28;20141;-87
2021/10/12 08:43:38;;;;;;;22.33;14.13;;;10.90;99.90;;;;;;4966840;28;20121;-87
2021/10/12 08:46:04;;;;;;;18.45;11.93;;;10.90;99.90;;;;;;4944310;28;20031;-87
2021/10/12 08:48:32;;;;;;;16.45;12.00;;;10.90;99.90;;;;;;4955879;28;20514;-87
2021/10/12 08:51:00;;;;;;;21.52;16.23;;;11.00;99.90;;;;;;4957545;28;20512;-87
2021/10/12 08:53:29;;;;;;;21.45;15.07;;;11.00;99.90;;;;;;5000079;28;20096;-87
2021/10/12 08:55:56;;;;;;;24.60;17.20;;;11.10;99.90;;;;;;5006612;28;20046;-87
2021/10/12 08:58:23;;;;;;;24.13;15.20;;;11.10;99.90;;;;;;4998773;28;20498;-87
2021/10/12 09:01:09;;;;;;;21.88;14.10;;;11.10;99.90;;;;;;4945539;28;20430;-87
2021/10/12 09:03:51;;;;;;;21.88;15.35;;;11.30;99.90;;;;;;4953349;28;20033;-88
2021/10/12 09:06:35;;;;;;;21.58;15.45;;;11.20;99.90;;;;;;4954497;28;20445;-87
2021/10/12 09:09:06;;;;;;;28.25;18.88;;;11.20;99.90;;;;;;4936388;28;20030;-86
2021/10/12 09:11:33;;;;;;;25.08;17.45;;;11.20;99.90;;;;;;4969576;28;20092;-87
2021/10/12 09:14:11;;;;;;;23.40;17.23;;;11.20;99.90;;;;;;4988817;28;20108;-86
2021/10/12 09:16:44;;;;;;;20.83;11.20;;;11.30;99.90;;;;;;4974330;28;20046;-86
2021/10/12 09:19:17;;;;;;;18.20;12.30;;;11.20;99.90;;;;;;4982574;28;20033;-86
2021/10/12 09:21:46;;;;;;;24.23;16.85;;;11.10;99.90;;;;;;4950421;28;20528;-86
2021/10/12 09:24:20;;;;;;;23.45;17.13;;;11.20;99.90;;;;;;4976564;28;20034;-86
2021/10/12 09:26:55;;;;;;;16.17;12.05;;;11.20;99.90;;;;;;4968297;28;20549;-86
2021/10/12 09:29:25;;;;;;;18.30;13.53;;;11.20;99.90;;;;;;4985220;28;20038;-86
2021/10/12 09:31:51;;;;;;;18.10;11.95;;;11.10;99.90;;;;;;4984769;28;20353;-86
2021/10/12 09:34:17;;;;;;;22.80;15.57;;;11.20;99.90;;;;;;4970384;28;20065;-86
2021/10/12 09:36:45;;;;;;;20.52;15.13;;;11.20;99.90;;;;;;4969930;28;20034;-87
2021/10/12 09:39:18;;;;;;;22.90;15.02;;;11.20;99.90;;;;;;4994502;28;20030;-87
2021/10/12 09:41:46;;;;;;;22.10;14.20;;;11.20;99.90;;;;;;4974870;28;20037;-89
2021/10/12 09:44:16;;;;;;;24.48;16.13;;;11.20;99.90;;;;;;4975409;28;20081;-87
2021/10/12 09:46:46;;;;;;;29.00;17.48;;;11.20;99.90;;;;;;5001709;28;20048;-87
2021/10/12 09:49:13;;;;;;;23.48;17.02;;;11.20;99.90;;;;;;4976722;28;20082;-87
2021/10/12 09:52:07;;;;;;;22.77;17.17;;;11.30;99.90;;;;;;5004876;28;20218;-86
2021/10/12 09:54:41;;;;;;;17.17;12.93;;;11.20;99.90;;;;;;4987257;28;20473;-86
2021/10/12 09:57:07;;;;;;;18.02;13.38;;;11.20;99.90;;;;;;5000826;28;20034;-86
2021/10/12 09:59:33;;;;;;;15.52;11.95;;;11.30;99.90;;;;;;4972691;28;20524;-87
2021/10/12 10:01:59;;;;;;;23.10;16.30;;;11.30;99.90;;;;;;4977308;28;20034;-86
2021/10/12 10:04:26;;;;;;;17.05;12.07;;;11.30;99.90;;;;;;4988708;28;20751;-85
2021/10/12 10:06:57;;;;;;;17.92;15.57;;;11.40;99.90;;;;;;4995262;28;20029;-86
2021/10/12 10:09:25;;;;;;;22.35;16.17;;;11.40;99.90;;;;;;5004214;28;20529;-86
2021/10/12 10:11:51;;;;;;;20.52;15.68;;;11.40;99.90;;;;;;4975743;28;20035;-86
2021/10/12 10:14:17;;;;;;;16.98;12.63;;;11.40;99.90;;;;;;4952686;28;20030;-86
2021/10/12 10:16:49;;;;;;;23.77;16.40;;;11.50;99.90;;;;;;4950694;28;20796;-86
2021/10/12 10:19:26;;;;;;;19.90;14.70;;;11.40;99.90;;;;;;5001561;28;20084;-86
2021/10/12 10:21:52;;;;;;;14.85;11.48;;;11.50;99.90;;;;;;4978253;28;20523;-86
2021/10/12 10:24:30;;;;;;;12.95;9.25;;;11.50;99.90;;;;;;4965892;28;20034;-86
2021/10/12 10:26:58;;;;;;;16.50;11.50;;;11.50;99.90;;;;;;4979386;28;20036;-85
2021/10/12 10:29:29;;;;;;;12.80;10.48;;;11.50;99.90;;;;;;4964102;28;20030;-88
2021/10/12 10:32:02;;;;;;;9.73;8.68;;;11.50;99.90;;;;;;4994395;28;20026;-85
2021/10/12 10:34:47;;;;;;;11.60;10.32;;;11.60;99.90;;;;;;5005477;28;20061;-86
2021/10/12 10:37:15;;;;;;;14.25;9.07;;;11.60;99.90;;;;;;4980682;28;20068;-86
2021/10/12 10:39:45;;;;;;;10.55;9.45;;;11.60;99.90;;;;;;4986093;28;20126;-86
2021/10/12 10:42:33;;;;;;;12.63;10.00;;;11.70;99.90;;;;;;4986599;28;20042;-86
2021/10/12 10:45:00;;;;;;;12.65;9.48;;;11.80;99.90;;;;;;4995559;28;20046;-86
2021/10/12 10:47:41;;;;;;;12.15;9.57;;;11.80;99.90;;;;;;4946056;28;20026;-86
2021/10/12 10:50:12;;;;;;;13.40;9.77;;;11.80;99.90;;;;;;5002025;28;20034;-87
2021/10/12 10:52:47;;;;;;;11.73;8.63;;;11.90;99.90;;;;;;5009666;28;20117;-87
2021/10/12 10:55:25;;;;;;;10.60;7.87;;;11.90;99.90;;;;;;5004313;28;20430;-87
2021/10/12 10:58:08;;;;;;;11.48;8.20;;;11.90;99.90;;;;;;4971864;28;20402;-87
2021/10/12 11:00:43;;;;;;;9.52;8.23;;;12.00;99.90;;;;;;4982776;28;20482;-86
2021/10/12 11:03:32;;;;;;;11.13;8.25;;;12.00;99.90;;;;;;5003984;28;20041;-86
2021/10/12 11:06:27;;;;;;;12.98;9.55;;;12.10;99.90;;;;;;5001446;28;20569;-86
2021/10/12 11:09:00;;;;;;;11.85;9.50;;;12.20;99.90;;;;;;4999953;28;20374;-87
2021/10/12 11:11:30;;;;;;;18.38;14.27;;;12.20;99.90;;;;;;5003169;28;20061;-87
2021/10/12 11:13:57;;;;;;;17.88;15.35;;;12.30;99.90;;;;;;5003050;28;20029;-87
2021/10/12 11:16:23;;;;;;;17.55;10.93;;;12.40;99.90;;;;;;4987733;28;20513;-87
2021/10/12 11:18:59;;;;;;;16.67;12.38;;;12.50;99.90;;;;;;5002744;28;20030;-87
2021/10/12 11:21:24;;;;;;;15.65;11.60;;;12.50;99.90;;;;;;4991472;28;20461;-86
2021/10/12 11:23:57;;;;;;;15.10;10.55;;;12.60;99.90;;;;;;4988807;28;20038;-86
2021/10/12 11:26:24;;;;;;;15.20;12.40;;;12.70;99.90;;;;;;4990534;28;20490;-86
2021/10/12 11:28:52;;;;;;;17.90;15.75;;;12.70;99.90;;;;;;4966649;28;20039;-86
2021/10/12 11:31:19;;;;;;;19.13;16.45;;;12.70;99.90;;;;;;4962651;28;20034;-86
2021/10/12 11:33:47;;;;;;;13.75;10.27;;;12.70;99.90;;;;;;4976267;28;20035;-86
2021/10/12 11:36:17;;;;;;;20.33;15.77;;;12.60;99.90;;;;;;4981626;28;20474;-86
2021/10/12 11:38:50;;;;;;;21.90;14.77;;;12.60;99.90;;;;;;4954056;28;20049;-85
2021/10/12 11:41:23;;;;;;;21.52;16.85;;;12.70;99.90;;;;;;4984733;28;20034;-85
2021/10/12 11:43:49;;;;;;;15.43;11.73;;;12.60;99.90;;;;;;4977998;28;20054;-85
2021/10/12 11:46:19;;;;;;;15.85;13.43;;;12.60;99.90;;;;;;4955144;28;20031;-85
2021/10/12 11:48:45;;;;;;;15.48;12.20;;;12.60;99.90;;;;;;4960445;28;20046;-85
2021/10/12 11:51:24;;;;;;;21.52;15.43;;;12.60;99.90;;;;;;4984657;28;20419;-86
2021/10/12 11:53:51;;;;;;;17.27;15.27;;;12.70;99.90;;;;;;4945203;28;20507;-85
2021/10/12 11:56:18;;;;;;;29.35;19.67;;;12.80;99.90;;;;;;4943634;28;20038;-85
2021/10/12 11:58:44;;;;;;;21.63;15.82;;;12.90;99.90;;;;;;4956392;28;20153;-85
2021/10/12 12:01:10;;;;;;;24.88;19.52;;;13.00;99.90;;;;;;4952842;28;20038;-86
2021/10/12 12:03:36;;;;;;;16.63;14.50;;;13.20;99.90;;;;;;4956711;28;20045;-85
2021/10/12 12:06:04;;;;;;;17.73;13.13;;;13.40;99.90;;;;;;4978774;28;20031;-83
2021/10/12 12:08:30;;;;;;;19.83;16.27;;;13.60;99.90;;;;;;4943987;28;20434;-84
2021/10/12 12:10:56;;;;;;;20.98;15.82;;;13.90;99.90;;;;;;4959845;28;20482;-87
2021/10/12 12:13:24;;;;;;;18.40;14.85;;;14.10;99.90;;;;;;4985037;28;20102;-84
2021/10/12 12:15:50;;;;;;;15.27;12.45;;;14.20;99.90;;;;;;4952196;28;20402;-84
2021/10/12 12:18:20;;;;;;;17.40;13.23;;;14.40;99.90;;;;;;4959433;28;20037;-84
2021/10/12 12:21:00;;;;;;;15.98;12.35;;;14.60;99.90;;;;;;4959016;28;20133;-84
2021/10/12 12:23:32;;;;;;;10.88;9.77;;;14.80;99.90;;;;;;4996534;28;20499;-84
2021/10/12 12:25:57;;;;;;;13.43;10.70;;;14.90;99.90;;;;;;4965062;28;20059;-84
2021/10/12 12:28:23;;;;;;;11.20;9.57;;;15.10;99.90;;;;;;5000436;28;20065;-84
2021/10/12 12:30:50;;;;;;;11.05;8.70;;;15.20;99.90;;;;;;4993559;28;20034;-84
2021/10/12 12:33:15;;;;;;;10.45;8.18;;;15.30;99.90;;;;;;4980102;28;20127;-84
2021/10/12 12:35:42;;;;;;;10.88;7.53;;;15.20;99.90;;;;;;4989683;28;20031;-84